Main page
METAR-TAF:

METAR-TAF

Airports :

Cork Airport

Cork, Ireland

latitude: 51-51N, longitude: 008-29W, elevation: 153 m

Current weather observation

The report was made 39 minutes ago, at 21:00 UTC
Wind 7 kt from the Northwest
Temperature 8°C
Humidity 81%
Pressure 1028 hPa
Visibility 10 km or more
Few clouds at a height of 2500 ft

METAR: EICK 172100Z 31007KT 9999 FEW025 08/05 Q1028 NOSIG

Time: 22:39 (21:39 UTC)

Forecast

The report was made 13 minutes ago, at 21:26 UTC
Forecast valid from 17 at 21 UTC to 18 at 18 UTC
Wind 8 kt from the North/Northwest
Visibility 10 km or more
Scattered clouds at a height of 2600 ft
Temporary
from 18 at 01 UTC to 18 at 07 UTC
Visibility: 3000 m
Broken clouds at a height of 600 ft
mist

TAF: EICK 172126Z 1721/1818 33008KT 9999 SCT026 TEMPO 1801/1807 3000 BR BKN006

Weather observations and forecasts of more than 4000 airports (METAR and TAF reports).

The available stations are represented by yellow and red dots on the map.

Hover mouse over dot to see the name of the station.

Then click to see weather observations and forecasts.

To change the map : click on the green buttons with a black cross to zoom in, on the green button with a dash to zoom out, or on the green arrows for adjacent maps.


METAR-TAF: